createdAt,value
2018-12-07T00:18:49.779Z,21.21
2018-12-07T00:29:04.522Z,21.21
2018-12-07T00:34:07.807Z,21.09
2018-12-07T00:39:11.094Z,21.14
2018-12-07T00:44:14.401Z,21.10
2018-12-07T00:49:17.710Z,21.11
2018-12-07T00:54:21.000Z,21.08
2018-12-07T00:59:24.420Z,21.10
2018-12-07T01:04:27.735Z,21.06
2018-12-07T01:09:31.047Z,21.06
2018-12-07T01:14:34.366Z,21.02
2018-12-07T01:19:37.667Z,20.98
2018-12-07T01:24:40.994Z,20.95
2018-12-07T01:29:44.310Z,20.95
2018-12-07T01:34:47.610Z,20.96
2018-12-07T01:39:50.919Z,20.96
2018-12-07T01:44:54.231Z,20.92
2018-12-07T01:49:57.527Z,20.89
2018-12-07T01:55:00.824Z,20.89
2018-12-07T02:00:04.508Z,20.90
2018-12-07T02:05:07.832Z,20.86
2018-12-07T02:10:11.123Z,20.86
2018-12-07T02:15:14.426Z,20.86
2018-12-07T02:20:17.714Z,20.83
2018-12-07T02:25:21.145Z,20.86
2018-12-07T02:30:24.444Z,20.82
2018-12-07T02:35:27.757Z,20.79
2018-12-07T02:40:31.055Z,20.78
2018-12-07T02:45:34.467Z,20.77
2018-12-07T02:50:37.782Z,20.75
2018-12-07T02:55:41.101Z,20.74
2018-12-07T03:00:44.391Z,20.72
2018-12-07T03:05:47.689Z,20.72
2018-12-07T03:10:50.991Z,20.69
2018-12-07T03:15:54.282Z,20.68
2018-12-07T03:20:57.591Z,20.66
2018-12-07T03:26:00.870Z,20.65
2018-12-07T03:31:04.163Z,20.63
2018-12-07T03:36:07.587Z,20.62
2018-12-07T03:41:10.887Z,20.62
2018-12-07T03:46:14.178Z,20.61
2018-12-07T03:51:17.471Z,20.60
2018-12-07T03:56:20.777Z,20.59
2018-12-07T04:01:24.063Z,20.57
2018-12-07T04:06:27.350Z,20.57
2018-12-07T04:11:30.706Z,20.57
2018-12-07T04:16:33.982Z,20.55
2018-12-07T04:21:37.258Z,20.55
2018-12-07T04:26:40.703Z,20.53
2018-12-07T04:31:43.997Z,20.53
2018-12-07T04:36:47.296Z,20.54
2018-12-07T04:41:50.617Z,20.50
2018-12-07T04:46:54.451Z,20.47
2018-12-07T04:51:57.847Z,20.50
2018-12-07T04:57:01.455Z,20.47
2018-12-07T05:02:05.365Z,20.44
2018-12-07T05:07:08.648Z,20.43
2018-12-07T05:12:11.989Z,20.39
2018-12-07T05:17:15.322Z,20.37
2018-12-07T05:22:18.614Z,20.37
2018-12-07T05:27:21.906Z,20.36
2018-12-07T05:32:25.183Z,20.34
2018-12-07T05:37:28.529Z,20.34
2018-12-07T05:42:31.807Z,20.34
2018-12-07T05:47:35.102Z,20.33
2018-12-07T05:52:38.451Z,20.32
2018-12-07T05:57:42.013Z,20.31
2018-12-07T06:02:45.297Z,20.30
2018-12-07T06:07:48.761Z,20.30
2018-12-07T06:12:52.038Z,20.28
2018-12-07T06:17:55.398Z,20.29
2018-12-07T06:22:58.703Z,20.27
2018-12-07T06:28:01.998Z,20.28
2018-12-07T06:33:05.290Z,20.28
2018-12-07T06:38:08.594Z,20.25
2018-12-07T06:43:11.902Z,20.25
2018-12-07T06:48:15.311Z,20.26
2018-12-07T06:53:18.598Z,20.25
2018-12-07T06:58:21.893Z,20.25
2018-12-07T07:03:25.200Z,20.23
2018-12-07T07:08:28.526Z,20.24
2018-12-07T07:13:31.806Z,20.23
2018-12-07T07:18:35.100Z,20.24
2018-12-07T07:23:38.390Z,20.21
2018-12-07T07:28:41.794Z,20.22
2018-12-07T07:33:45.218Z,20.21
2018-12-07T07:38:48.510Z,20.19
2018-12-07T07:43:51.811Z,20.13
2018-12-07T07:48:55.151Z,20.10
2018-12-07T07:53:58.459Z,17.53
2018-12-07T07:59:01.785Z,17.04
2018-12-07T08:04:05.117Z,16.60
2018-12-07T08:09:08.484Z,16.52
2018-12-07T08:14:11.787Z,16.35
2018-12-07T08:19:15.074Z,16.07
2018-12-07T08:24:18.380Z,16.02
2018-12-07T08:29:21.695Z,16.67
2018-12-07T08:34:24.996Z,18.42
2018-12-07T08:39:28.283Z,19.19
2018-12-07T08:44:31.590Z,19.57
2018-12-07T08:49:40.263Z,19.74
2018-12-07T08:54:43.630Z,20.14
2018-12-07T08:59:46.947Z,20.28
2018-12-07T09:04:50.243Z,20.26
2018-12-07T09:09:53.530Z,20.21
2018-12-07T09:14:56.827Z,20.21
2018-12-07T09:20:00.122Z,20.25
2018-12-07T09:25:03.594Z,20.16
2018-12-07T09:30:06.902Z,20.18
2018-12-07T09:35:10.195Z,20.08
2018-12-07T09:40:13.479Z,20.07
2018-12-07T09:45:16.762Z,20.07
2018-12-07T09:50:20.043Z,20.05
2018-12-07T09:55:23.322Z,19.93
2018-12-07T10:00:26.646Z,20.07
2018-12-07T10:05:29.998Z,20.12
2018-12-07T10:10:33.292Z,20.16
2018-12-07T10:15:36.592Z,20.23
2018-12-07T10:20:40.279Z,20.30
2018-12-07T10:25:43.554Z,20.28
2018-12-07T10:30:46.834Z,20.27
2018-12-07T10:35:50.114Z,20.19
2018-12-07T10:40:53.405Z,20.22
2018-12-07T10:45:56.690Z,20.18
2018-12-07T10:51:00.070Z,20.29
2018-12-07T10:56:03.413Z,20.37
2018-12-07T11:01:12.147Z,20.54
2018-12-07T11:06:20.903Z,20.49
2018-12-07T11:11:29.502Z,20.48
2018-12-07T11:16:38.045Z,20.50
2018-12-07T11:21:46.621Z,20.66
2018-12-07T11:26:55.334Z,20.70
2018-12-07T11:32:03.998Z,20.57
2018-12-07T11:37:07.291Z,20.68
2018-12-07T11:42:10.587Z,20.62
2018-12-07T11:47:13.900Z,20.61
2018-12-07T11:52:17.198Z,20.53
2018-12-07T11:57:20.495Z,20.50
2018-12-07T12:02:26.497Z,20.49
2018-12-07T12:07:29.130Z,20.47
2018-12-07T12:12:32.434Z,20.52
2018-12-07T12:17:35.734Z,20.53
2018-12-07T12:22:39.031Z,20.46
2018-12-07T12:27:42.327Z,20.38
2018-12-07T12:32:45.646Z,20.28
2018-12-07T12:37:48.941Z,20.24
2018-12-07T12:42:52.327Z,20.21
2018-12-07T12:47:55.666Z,20.19
2018-12-07T12:52:58.982Z,20.19
2018-12-07T12:58:02.346Z,20.21
2018-12-07T13:03:05.634Z,20.22
2018-12-07T13:08:08.926Z,20.25
2018-12-07T13:13:12.228Z,20.26
2018-12-07T13:18:15.529Z,20.35
2018-12-07T13:23:18.852Z,20.36
2018-12-07T13:28:22.153Z,20.36
2018-12-07T13:33:25.450Z,20.34
2018-12-07T13:38:28.735Z,20.38
2018-12-07T13:43:32.249Z,20.44
2018-12-07T13:48:35.743Z,20.50
2018-12-07T13:53:39.163Z,20.45
2018-12-07T13:58:42.570Z,20.47
2018-12-07T14:03:45.995Z,20.51
2018-12-07T14:08:49.384Z,20.49
2018-12-07T14:13:52.808Z,20.51
2018-12-07T14:18:56.210Z,20.57
2018-12-07T14:23:59.629Z,20.60
2018-12-07T14:29:03.069Z,20.59
2018-12-07T14:34:06.596Z,20.63
2018-12-07T14:39:09.957Z,20.65
2018-12-07T14:44:13.291Z,20.68
2018-12-07T14:49:16.721Z,20.66
2018-12-07T14:54:20.300Z,20.66
2018-12-07T14:59:23.703Z,20.65
2018-12-07T15:04:27.006Z,20.67
2018-12-07T15:09:30.689Z,20.65
2018-12-07T15:14:34.171Z,20.60
2018-12-07T15:19:37.598Z,20.64
2018-12-07T15:24:41.412Z,20.61
2018-12-07T15:29:44.965Z,20.61
2018-12-07T15:34:48.439Z,20.62
2018-12-07T15:39:51.980Z,20.63
2018-12-07T15:44:55.319Z,20.68
2018-12-07T15:49:58.860Z,20.71
2018-12-07T15:55:02.327Z,20.66
2018-12-07T16:00:07.074Z,20.72
2018-12-07T16:05:10.705Z,20.72
2018-12-07T16:10:14.212Z,20.76
2018-12-07T16:15:17.923Z,20.77
2018-12-07T16:20:21.456Z,20.80
2018-12-07T16:25:24.961Z,20.72
2018-12-07T16:30:28.346Z,20.76
2018-12-07T16:35:32.432Z,20.75
2018-12-07T16:40:35.800Z,20.75
2018-12-07T16:45:39.284Z,20.76
2018-12-07T16:50:42.721Z,20.75
2018-12-07T16:55:46.051Z,20.75
2018-12-07T17:00:49.495Z,20.76
2018-12-07T17:05:52.915Z,20.76
2018-12-07T17:10:56.290Z,20.80
2018-12-07T17:15:59.845Z,21.57
2018-12-07T17:21:03.253Z,21.53
2018-12-07T17:26:06.824Z,21.60
2018-12-07T17:31:10.244Z,21.66
2018-12-07T17:36:13.980Z,21.72
2018-12-07T17:41:17.398Z,21.78
2018-12-07T17:46:21.084Z,21.78
2018-12-07T17:51:24.594Z,21.97
2018-12-07T17:56:28.019Z,21.92
2018-12-07T18:01:31.359Z,22.05
2018-12-07T18:06:34.668Z,22.00
2018-12-07T18:11:37.959Z,21.98
2018-12-07T18:16:41.480Z,21.91
2018-12-07T18:21:45.323Z,21.99
2018-12-07T18:26:48.815Z,21.96
2018-12-07T18:31:52.276Z,22.04
2018-12-07T18:36:55.867Z,22.13
2018-12-07T18:41:59.292Z,21.99
2018-12-07T18:47:02.631Z,22.02
2018-12-07T18:52:06.006Z,22.08
2018-12-07T18:57:09.282Z,22.07
2018-12-07T19:02:12.796Z,22.05
2018-12-07T19:07:16.296Z,22.13
2018-12-07T19:12:19.799Z,22.08
2018-12-07T19:17:23.288Z,22.09
2018-12-07T19:22:26.821Z,22.15
2018-12-07T19:27:30.410Z,22.12
2018-12-07T19:32:33.994Z,22.15
2018-12-07T19:37:37.318Z,22.26
2018-12-07T19:42:40.846Z,22.20
2018-12-07T19:47:44.588Z,22.12
2018-12-07T19:52:47.986Z,22.11
2018-12-07T19:57:56.310Z,22.01
2018-12-07T20:03:00.178Z,21.94
2018-12-07T20:08:03.563Z,22.01
2018-12-07T20:13:08.088Z,21.90
2018-12-07T20:18:11.754Z,21.84
2018-12-07T20:23:15.047Z,21.78
2018-12-07T20:28:18.576Z,21.66
2018-12-07T20:33:21.974Z,21.60
2018-12-07T20:38:25.466Z,21.54
2018-12-07T20:43:29.098Z,21.48
2018-12-07T20:48:32.472Z,21.43
2018-12-07T20:53:35.964Z,21.52
2018-12-07T20:58:39.390Z,21.55
2018-12-07T21:04:03.866Z,21.46
2018-12-07T21:09:26.343Z,21.46
2018-12-07T21:14:41.953Z,21.45
2018-12-07T21:19:49.945Z,21.43
2018-12-07T21:24:53.423Z,21.41
2018-12-07T21:30:15.290Z,21.39
2018-12-07T21:35:18.897Z,21.37
2018-12-07T21:40:25.897Z,21.39
2018-12-07T21:45:29.707Z,21.42
2018-12-07T21:50:33.932Z,21.40
2018-12-07T21:55:37.435Z,21.33
2018-12-07T22:00:41.022Z,21.35
2018-12-07T22:05:44.477Z,21.33
2018-12-07T22:10:47.931Z,21.36
2018-12-07T22:15:51.366Z,21.32
2018-12-07T22:20:55.070Z,21.33
2018-12-07T22:25:58.438Z,21.34
2018-12-07T22:31:01.749Z,21.36
2018-12-07T22:36:05.192Z,21.33
2018-12-07T22:41:08.799Z,21.33
2018-12-07T22:46:12.415Z,21.35
2018-12-07T22:51:17.778Z,21.26
2018-12-07T22:56:21.066Z,21.28
2018-12-07T23:01:24.354Z,21.35
2018-12-07T23:06:27.663Z,21.34
2018-12-07T23:11:30.974Z,21.33
2018-12-07T23:16:34.270Z,21.29
2018-12-07T23:21:37.558Z,21.30
2018-12-07T23:26:40.838Z,21.35
2018-12-07T23:31:44.122Z,21.37
2018-12-07T23:36:47.445Z,21.32
2018-12-07T23:41:50.720Z,21.30
2018-12-07T23:46:54.041Z,21.28
2018-12-07T23:51:57.474Z,21.32
2018-12-07T23:57:00.758Z,21.26
